Meteo Giornale » Osservazioni meteo Italia » Pescara

ore: 03:20 - Osservazioni Meteo Pescara
Lat. 42° 26' N Lon. 14° 12' E Alt. 10 metri s.l.m.

poco_nuvoloso Europe/Rome

27 °C

Poco Nuvoloso

Temp. 24 Ore

18 °C

30 °C

Ovest/Sud-Ovest

9.3 Km/h

Dew point 19 °C

Umidità 61 %

Visibilità  10 Km

Il sole sorge alle ore 05:58

Il sole tramonta alle ore 20:19

Data e Ora Cielo e Fenomeni T °C DP °C Um. % Pres. hPa Vis. km Vento km/h
Oggi h: 03:20 poco_nuvoloso Poco Nuvoloso 27 19 61 1006 10 O/SO 9.3
Oggi h: 02:50 sereno Sereno 23 21 88 1006 10 SO 7.4
Oggi h: 02:20 sereno Sereno 23 21 88 1006 10 N 5.5
Oggi h: 01:50 sereno Sereno 24 21 83 1007 10 N 3.7
Oggi h: 01:20 poco_nuvoloso Poco Nuvoloso 24 21 83 1007 10 N 5.5
Oggi h: 00:50 poco_nuvoloso Poco Nuvoloso 24 21 83 1008 10 S/SO 9.3
Oggi h: 00:20 sereno Sereno 24 22 88 1008 10 O/SO 9.3
Ieri h: 23:50 sereno Sereno 24 22 88 1008 10 SO 7.4
Ieri h: 23:20 poco_nuvoloso Poco Nuvoloso 24 22 88 1008 10 S/SO 7.4
Ieri h: 22:50 sereno Sereno 25 22 83 1008 10 N 3.7
Ieri h: 22:20 sereno Sereno 25 22 83 1008 10 N 3.7
Ieri h: 21:50 sereno Sereno 25 22 83 1008 10 N 3.7
Ieri h: 21:20 sereno Sereno 26 23 83 1008 10 N 5.5
Ieri h: 20:50 coperto_pioggia Pioggia Debole 26 23 83 1008 10 N 5.5
Ieri h: 20:20 sereno Sereno 27 22 74 1008 10 N 7.4
Ieri h: 19:50 sereno Sereno 27 22 74 1008 10 N/NE 9.3
Ieri h: 19:20 sereno Sereno 28 22 69 1009 10 N/NE 11.1
Ieri h: 18:50 sereno Sereno 28 22 69 1009 10 NE 11.1
Ieri h: 18:20 sereno Sereno 28 22 69 1009 10 NE 13
Ieri h: 17:50 poco_nuvoloso Poco Nuvoloso 29 22 66 1009 10 NE 14.8
Ieri h: 17:20 molto_nuvoloso Molto Nuvoloso 29 22 66 1010 10 NE 16.7
Ieri h: 16:50 nuvoloso Nuvoloso 29 21 62 1010 10 E 14.8
Ieri h: 16:20 nuvoloso Nuvoloso 30 19 51 1010 10 E 16.7
Ieri h: 15:50 poco_nuvoloso Poco Nuvoloso 29 21 62 1011 10 E/NE 22.2
Ieri h: 15:20 sereno Sereno 29 20 58 1011 10 E 22.2
Ieri h: 14:50 sereno Sereno 29 20 58 1011 10 E/NE 22.2
Ieri h: 14:20 poco_nuvoloso Poco Nuvoloso 30 19 51 1011 10 E/NE 24
Ieri h: 13:50 sereno Sereno 30 18 48 1012 10 E/NE 22.2
Ieri h: 13:20 sereno Sereno 30 19 51 1012 10 E/NE 24
Ieri h: 11:50 sereno Sereno 30 18 48 1013 10 E 14.8
Ieri h: 11:20 sereno Sereno 29 16 45 1014 10 E 18.5
Ieri h: 10:50 sereno Sereno 30 15 40 1014 10 E/NE 22.2
Ieri h: 10:20 sereno Sereno 29 16 45 1014 10 E/NE 16.7
Ieri h: 09:50 sereno Sereno 29 15 42 1014 10 E/NE 11.1
Ieri h: 09:20 sereno Sereno 28 13 39 1014 10 N 3.7
Ieri h: 08:50 sereno Sereno 26 11 39 1014 10 N 3.7
Ieri h: 08:20 sereno Sereno 25 13 47 1014 10 N 3.7
Ieri h: 07:50 sereno Sereno 23 13 53 1014 10 N 3.7
Ieri h: 07:20 sereno Sereno 20 15 72 1014 10 N 3.7
Ieri h: 06:50 sereno Sereno 19 15 77 1014 10 N 5.5
Ieri h: 06:20 sereno Sereno 18 15 82 1014 10 SO 9.3
Ieri h: 05:50 poco_nuvoloso Poco Nuvoloso 19 15 77 1014 10 N 5.5
Ieri h: 05:20 molto_nuvoloso Molto Nuvoloso 19 16 82 1014 10 SO 7.4
Ieri h: 04:50 molto_nuvoloso Molto Nuvoloso 19 16 82 1014 10 S/SO 7.4